createdAt,value
2023-03-15T00:01:46.527Z,3.55
2023-03-15T00:04:13.895Z,2.50
2023-03-15T00:06:40.960Z,2.53
2023-03-15T00:09:07.654Z,3.75
2023-03-15T00:11:34.228Z,3.70
2023-03-15T00:14:02.415Z,3.60
2023-03-15T00:16:29.080Z,4.32
2023-03-15T00:18:56.397Z,3.97
2023-03-15T00:21:23.417Z,2.97
2023-03-15T00:23:50.235Z,4.32
2023-03-15T00:26:17.371Z,4.20
2023-03-15T00:28:44.087Z,4.47
2023-03-15T00:31:16.907Z,5.82
2023-03-15T00:33:44.083Z,5.32
2023-03-15T00:36:12.580Z,4.25
2023-03-15T00:38:42.848Z,5.43
2023-03-15T00:41:15.490Z,5.03
2023-03-15T00:43:42.829Z,6.38
2023-03-15T00:46:09.834Z,4.85
2023-03-15T00:48:36.599Z,5.63
2023-03-15T00:51:11.873Z,6.38
2023-03-15T00:53:40.602Z,5.88
2023-03-15T00:56:10.216Z,6.40
2023-03-15T00:58:37.949Z,2.63
2023-03-15T01:01:14.429Z,6.90
2023-03-15T01:03:41.966Z,7.25
2023-03-15T01:06:13.583Z,4.43
2023-03-15T01:08:41.200Z,7.95
2023-03-15T01:11:10.889Z,6.03
2023-03-15T01:13:37.991Z,7.57
2023-03-15T01:16:05.612Z,4.00
2023-03-15T01:18:32.251Z,7.85
2023-03-15T01:20:59.645Z,7.63
2023-03-15T01:23:26.556Z,3.30
2023-03-15T01:25:53.095Z,2.92
2023-03-15T01:28:19.606Z,7.20
2023-03-15T01:30:52.853Z,2.85
2023-03-15T01:33:20.118Z,4.32
2023-03-15T01:35:47.017Z,5.05
2023-03-15T01:38:14.090Z,4.75
2023-03-15T01:40:45.637Z,6.22
2023-03-15T01:43:20.860Z,4.65
2023-03-15T01:48:17.325Z,8.77
2023-03-15T01:50:44.430Z,3.92
2023-03-15T01:53:12.041Z,7.90
2023-03-15T01:55:39.194Z,4.88
2023-03-15T01:58:06.985Z,7.50
2023-03-15T02:00:33.948Z,8.88
2023-03-15T02:03:08.433Z,13.23
2023-03-15T02:05:46.038Z,12.35
2023-03-15T02:08:17.547Z,7.72
2023-03-15T02:10:47.956Z,6.95
2023-03-15T02:13:19.434Z,6.28
2023-03-15T02:15:46.739Z,6.28
2023-03-15T02:18:14.639Z,6.90
2023-03-15T02:20:46.309Z,4.43
2023-03-15T02:23:15.785Z,6.60
2023-03-15T02:25:46.931Z,6.72
2023-03-15T02:28:15.753Z,5.45
2023-03-15T02:30:43.380Z,8.93
2023-03-15T02:33:20.982Z,7.45
2023-03-15T02:35:47.442Z,3.45
2023-03-15T02:38:13.923Z,7.32
2023-03-15T02:40:40.858Z,6.07
2023-03-15T02:43:14.011Z,4.60
2023-03-15T02:45:40.911Z,7.72
2023-03-15T02:48:08.983Z,11.05
2023-03-15T02:50:35.565Z,5.82
2023-03-15T02:53:03.057Z,10.40
2023-03-15T02:55:32.743Z,11.85
2023-03-15T02:58:00.970Z,9.48
2023-03-15T03:00:28.635Z,11.38
2023-03-15T03:02:55.502Z,12.18
2023-03-15T03:05:22.267Z,13.57
2023-03-15T03:07:50.386Z,13.52
2023-03-15T03:10:19.689Z,12.90
2023-03-15T03:12:46.707Z,13.57
2023-03-15T03:15:13.659Z,12.65
2023-03-15T03:17:40.190Z,6.63
2023-03-15T03:20:09.536Z,10.60
2023-03-15T03:22:37.535Z,10.52
2023-03-15T03:25:06.274Z,14.38
2023-03-15T03:27:36.656Z,13.00
2023-03-15T03:30:05.143Z,3.58
2023-03-15T03:32:31.949Z,11.85
2023-03-15T03:34:58.512Z,13.82
2023-03-15T03:37:25.510Z,12.95
2023-03-15T03:39:52.314Z,12.43
2023-03-15T03:42:18.879Z,8.52
2023-03-15T03:44:45.326Z,4.57
2023-03-15T03:47:11.803Z,10.70
2023-03-15T03:49:38.247Z,6.53
2023-03-15T03:52:05.059Z,10.02
2023-03-15T03:54:32.112Z,10.77
2023-03-15T03:56:58.929Z,10.98
2023-03-15T03:59:25.453Z,9.40
2023-03-15T04:01:52.004Z,10.57
2023-03-15T04:04:18.511Z,4.28
2023-03-15T04:06:46.078Z,12.13
2023-03-15T04:09:13.902Z,11.55
2023-03-15T04:11:44.977Z,9.07
2023-03-15T04:14:13.781Z,7.38
2023-03-15T04:16:41.032Z,11.55
2023-03-15T04:19:08.162Z,11.30
2023-03-15T04:21:35.044Z,11.00
2023-03-15T04:24:02.620Z,10.27
2023-03-15T04:26:29.600Z,8.57
2023-03-15T04:28:57.750Z,9.88
2023-03-15T04:31:28.505Z,10.35
2023-03-15T04:33:55.670Z,10.48
2023-03-15T04:36:23.004Z,10.23
2023-03-15T04:38:50.071Z,9.35
2023-03-15T04:41:18.125Z,8.02
2023-03-15T04:43:45.120Z,8.23
2023-03-15T04:46:11.850Z,8.85
2023-03-15T04:48:38.307Z,8.10
2023-03-15T04:51:04.964Z,8.30
2023-03-15T04:53:31.483Z,8.50
2023-03-15T04:55:58.021Z,9.60
2023-03-15T04:58:24.488Z,9.13
2023-03-15T05:00:53.729Z,10.15
2023-03-15T05:03:20.432Z,8.00
2023-03-15T05:05:46.957Z,7.65
2023-03-15T05:08:13.438Z,7.10
2023-03-15T05:10:39.939Z,6.85
2023-03-15T05:13:06.547Z,8.10
2023-03-15T05:15:33.081Z,7.45
2023-03-15T05:17:59.582Z,7.07
2023-03-15T05:20:26.110Z,7.32
2023-03-15T05:22:53.436Z,6.60
2023-03-15T05:25:19.959Z,6.45
2023-03-15T05:27:46.551Z,6.00
2023-03-15T05:30:16.976Z,6.10
2023-03-15T05:32:44.916Z,6.22
2023-03-15T05:35:13.450Z,6.47
2023-03-15T05:37:40.285Z,6.53
2023-03-15T05:40:11.476Z,8.32
2023-03-15T05:42:37.942Z,10.32
2023-03-15T05:45:04.767Z,12.20
2023-03-15T05:47:33.172Z,11.32
2023-03-15T05:50:00.503Z,12.18
2023-03-15T05:52:27.059Z,10.38
2023-03-15T05:54:53.528Z,13.02
2023-03-15T05:57:20.086Z,12.52
2023-03-15T05:59:46.545Z,13.55
2023-03-15T06:02:13.008Z,14.48
2023-03-15T06:04:39.630Z,15.02
2023-03-15T06:07:06.116Z,14.05
2023-03-15T06:09:32.604Z,13.38
2023-03-15T06:11:59.369Z,12.13
2023-03-15T06:14:27.366Z,13.05
2023-03-15T06:16:54.098Z,14.07
2023-03-15T06:19:21.701Z,9.38
2023-03-15T06:21:48.588Z,13.77
2023-03-15T06:24:15.234Z,14.55
2023-03-15T06:26:41.766Z,15.13
2023-03-15T06:29:08.276Z,11.88
2023-03-15T06:31:34.742Z,14.25
2023-03-15T06:34:01.611Z,13.07
2023-03-15T06:36:28.124Z,11.40
2023-03-15T06:38:54.762Z,12.40
2023-03-15T06:41:21.497Z,12.30
2023-03-15T06:43:48.033Z,10.55
2023-03-15T06:46:14.611Z,10.13
2023-03-15T06:48:42.398Z,11.40
2023-03-15T06:51:09.292Z,9.68
2023-03-15T06:53:35.891Z,9.50
2023-03-15T06:56:02.367Z,8.60
2023-03-15T06:58:28.887Z,8.98
2023-03-15T07:00:55.366Z,9.15
2023-03-15T07:03:22.389Z,9.20
2023-03-15T07:05:52.427Z,9.35
2023-03-15T07:08:19.589Z,9.98
2023-03-15T07:10:46.679Z,8.68
2023-03-15T07:13:13.354Z,9.52
2023-03-15T07:15:40.221Z,10.30
2023-03-15T07:18:07.118Z,9.95
2023-03-15T07:20:35.597Z,7.45
2023-03-15T07:23:03.918Z,9.27
2023-03-15T07:25:30.363Z,8.65
2023-03-15T07:27:56.898Z,7.93
2023-03-15T07:30:23.429Z,8.55
2023-03-15T07:32:50.194Z,9.15
2023-03-15T07:35:18.114Z,8.30
2023-03-15T07:37:44.981Z,8.27
2023-03-15T07:40:15.393Z,8.32
2023-03-15T07:42:42.686Z,8.18
2023-03-15T07:45:10.218Z,8.95
2023-03-15T07:47:36.964Z,9.63
2023-03-15T07:50:05.487Z,8.45
2023-03-15T07:52:31.946Z,9.90
2023-03-15T07:54:58.496Z,8.40
2023-03-15T07:57:26.668Z,9.32
2023-03-15T07:59:55.072Z,6.57
2023-03-15T08:02:21.571Z,10.98
2023-03-15T08:04:50.695Z,10.43
2023-03-15T08:07:17.657Z,10.07
2023-03-15T08:09:44.338Z,8.43
2023-03-15T08:12:13.833Z,9.45
2023-03-15T08:14:40.260Z,10.18
2023-03-15T08:17:06.955Z,10.50
2023-03-15T08:19:33.413Z,11.15
2023-03-15T08:21:59.872Z,10.70
2023-03-15T08:24:27.062Z,10.85
2023-03-15T08:26:53.554Z,14.15
2023-03-15T08:29:20.028Z,12.30
2023-03-15T08:31:46.515Z,14.25
2023-03-15T08:34:13.311Z,12.93
2023-03-15T08:36:39.802Z,11.77
2023-03-15T08:39:06.288Z,14.32
2023-03-15T08:41:32.778Z,13.25
2023-03-15T08:43:59.239Z,13.07
2023-03-15T08:46:26.442Z,13.90
2023-03-15T08:48:53.230Z,14.75
2023-03-15T08:51:21.140Z,5.68
2023-03-15T08:53:48.229Z,13.68
2023-03-15T08:56:14.757Z,15.57
2023-03-15T08:58:41.601Z,16.67
2023-03-15T09:01:10.676Z,17.35
2023-03-15T09:03:37.113Z,14.30
2023-03-15T09:06:03.637Z,15.40
2023-03-15T09:08:30.202Z,15.60
2023-03-15T09:10:57.396Z,11.95
2023-03-15T09:13:24.524Z,10.05
2023-03-15T09:15:54.967Z,9.10
2023-03-15T09:18:22.257Z,9.10
2023-03-15T09:20:48.725Z,6.97
2023-03-15T09:23:15.327Z,8.80
2023-03-15T09:25:42.139Z,2.92
2023-03-15T09:28:11.405Z,12.05
2023-03-15T09:30:39.822Z,11.65
2023-03-15T09:33:07.573Z,9.13
2023-03-15T09:35:34.163Z,8.82
2023-03-15T09:38:00.969Z,10.93
2023-03-15T09:40:33.219Z,10.57
2023-03-15T09:43:14.956Z,11.40
2023-03-15T09:45:54.068Z,4.88
2023-03-15T09:48:28.043Z,4.00
2023-03-15T09:51:03.158Z,9.63
2023-03-15T09:53:51.053Z,7.90
2023-03-15T09:56:26.242Z,2.65
2023-03-15T10:01:45.761Z,5.28
2023-03-15T10:04:29.703Z,6.88
2023-03-15T10:07:02.846Z,6.65
2023-03-15T10:09:33.758Z,7.03
2023-03-15T10:12:10.130Z,6.90
2023-03-15T10:14:51.844Z,8.30
2023-03-15T10:17:32.847Z,7.55
2023-03-15T10:20:04.267Z,7.97
2023-03-15T10:22:45.649Z,8.93
2023-03-15T10:25:12.183Z,1.17
2023-03-15T10:27:56.052Z,6.78
2023-03-15T10:30:28.721Z,8.25
2023-03-15T10:33:02.035Z,5.75
2023-03-15T10:35:28.880Z,6.45
2023-03-15T10:37:55.378Z,3.60
2023-03-15T10:40:42.004Z,3.55
2023-03-15T10:43:20.622Z,5.47
2023-03-15T10:45:59.205Z,4.65
2023-03-15T10:48:27.110Z,2.83
2023-03-15T10:50:54.885Z,2.45
2023-03-15T10:53:22.119Z,2.78
2023-03-15T10:55:49.256Z,2.88
2023-03-15T10:58:18.399Z,3.35
2023-03-15T11:01:12.954Z,4.97
2023-03-15T11:03:41.646Z,1.48
2023-03-15T11:06:21.394Z,2.55
2023-03-15T11:08:47.877Z,1.75
2023-03-15T11:11:14.437Z,2.58
2023-03-15T11:13:42.129Z,3.15
2023-03-15T11:16:21.428Z,2.42
2023-03-15T11:19:03.573Z,1.05
2023-03-15T11:21:36.772Z,3.20
2023-03-15T11:24:05.942Z,2.17
2023-03-15T11:26:36.017Z,2.65
2023-03-15T11:29:18.929Z,1.77
2023-03-15T11:31:45.608Z,1.92
2023-03-15T11:34:25.357Z,2.95
2023-03-15T11:37:07.482Z,0.95
2023-03-15T11:39:45.232Z,2.17
2023-03-15T11:42:22.998Z,1.08
2023-03-15T11:44:55.112Z,1.60
2023-03-15T11:47:43.335Z,2.58
2023-03-15T11:50:14.582Z,2.60
2023-03-15T11:52:42.923Z,1.60
2023-03-15T11:55:26.601Z,2.20
2023-03-15T11:57:54.302Z,1.65
2023-03-15T12:00:41.295Z,1.58
2023-03-15T12:03:44.282Z,2.53
2023-03-15T12:06:16.688Z,1.77
2023-03-15T12:08:50.311Z,2.08
2023-03-15T12:11:19.978Z,2.88
2023-03-15T12:13:58.419Z,1.75
2023-03-15T12:16:30.490Z,2.25
2023-03-15T12:19:09.751Z,2.60
2023-03-15T12:21:43.626Z,1.80
2023-03-15T12:24:24.053Z,1.00
2023-03-15T12:27:01.380Z,3.05
2023-03-15T12:29:30.151Z,1.95
2023-03-15T12:32:02.678Z,1.90
2023-03-15T12:34:53.177Z,2.03
2023-03-15T12:37:28.402Z,1.23
2023-03-15T12:42:33.365Z,1.60
2023-03-15T12:45:20.285Z,1.70
2023-03-15T12:48:08.656Z,1.63
2023-03-15T12:50:48.019Z,2.05
2023-03-15T12:53:21.631Z,2.03
2023-03-15T12:55:50.162Z,2.00
2023-03-15T12:58:22.798Z,1.73
2023-03-15T13:00:53.336Z,1.80
2023-03-15T13:03:22.711Z,0.93
2023-03-15T13:06:13.507Z,1.00
2023-03-15T13:08:45.937Z,1.60
2023-03-15T13:11:30.711Z,1.92
2023-03-15T13:14:04.503Z,1.65
2023-03-15T13:16:35.731Z,1.25
2023-03-15T13:19:37.111Z,1.88
2023-03-15T13:22:06.241Z,1.60
2023-03-15T13:25:09.863Z,1.63
2023-03-15T13:27:50.018Z,1.20
2023-03-15T13:30:46.505Z,1.00
2023-03-15T13:33:21.975Z,1.30
2023-03-15T13:35:56.313Z,0.65
2023-03-15T13:38:27.192Z,1.43
2023-03-15T13:40:55.602Z,1.27
2023-03-15T13:43:33.371Z,1.70
2023-03-15T13:46:00.509Z,1.50
2023-03-15T13:48:29.193Z,1.70
2023-03-15T13:51:01.200Z,1.33
2023-03-15T13:53:48.700Z,1.75
2023-03-15T13:56:21.590Z,1.95
2023-03-15T13:58:50.033Z,1.08
2023-03-15T14:01:17.819Z,1.20
2023-03-15T14:03:48.544Z,1.92
2023-03-15T14:06:23.753Z,1.35
2023-03-15T14:08:54.734Z,1.20
2023-03-15T14:11:24.221Z,2.33
2023-03-15T14:13:59.199Z,2.17
2023-03-15T14:17:03.497Z,0.68
2023-03-15T14:19:32.483Z,1.40
2023-03-15T14:22:01.686Z,2.20
2023-03-15T14:24:40.946Z,1.95
2023-03-15T14:27:25.157Z,1.90
2023-03-15T14:30:00.724Z,2.42
2023-03-15T14:32:32.325Z,1.75
2023-03-15T14:35:19.769Z,0.43
2023-03-15T14:37:47.220Z,1.35
2023-03-15T14:40:29.086Z,1.75
2023-03-15T14:42:56.052Z,1.00
2023-03-15T14:45:23.100Z,1.10
2023-03-15T14:48:05.526Z,1.45
2023-03-15T14:50:42.163Z,1.38
2023-03-15T14:53:12.665Z,1.42
2023-03-15T14:55:39.157Z,0.75
2023-03-15T14:58:12.351Z,1.52
2023-03-15T15:00:39.161Z,1.42
2023-03-15T15:03:13.835Z,1.38
2023-03-15T15:05:41.618Z,0.65
2023-03-15T15:08:13.308Z,1.83
2023-03-15T15:10:42.471Z,1.00
2023-03-15T15:13:22.831Z,1.48
2023-03-15T15:15:55.545Z,0.60
2023-03-15T15:18:28.297Z,0.98
2023-03-15T15:20:56.598Z,0.95
2023-03-15T15:23:29.317Z,1.70
2023-03-15T15:26:04.227Z,1.58
2023-03-15T15:28:36.133Z,2.08
2023-03-15T15:31:05.028Z,1.58
2023-03-15T15:33:31.707Z,1.05
2023-03-15T15:35:58.595Z,1.00
2023-03-15T15:38:32.250Z,1.30
2023-03-15T15:40:58.835Z,1.77
2023-03-15T15:43:25.366Z,1.63
2023-03-15T15:45:51.917Z,1.38
2023-03-15T15:48:18.635Z,1.60
2023-03-15T15:50:45.062Z,1.52
2023-03-15T15:53:15.403Z,1.60
2023-03-15T15:55:41.914Z,1.73
2023-03-15T15:58:12.058Z,0.82
2023-03-15T16:00:38.632Z,1.65
2023-03-15T16:03:14.860Z,1.70
2023-03-15T16:05:41.787Z,1.55
2023-03-15T16:08:36.949Z,1.70
2023-03-15T16:11:04.928Z,1.45
2023-03-15T16:13:31.408Z,1.70
2023-03-15T16:15:58.292Z,1.25
2023-03-15T16:18:25.426Z,1.25
2023-03-15T16:20:52.109Z,1.80
2023-03-15T16:23:22.512Z,1.30
2023-03-15T16:25:53.932Z,1.98
2023-03-15T16:28:20.486Z,1.30
2023-03-15T16:30:47.337Z,1.80
2023-03-15T16:33:21.515Z,2.28
2023-03-15T16:35:50.052Z,2.20
2023-03-15T16:38:24.270Z,1.88
2023-03-15T16:40:52.959Z,2.33
2023-03-15T16:43:19.617Z,2.50
2023-03-15T16:45:46.402Z,1.67
2023-03-15T16:48:13.190Z,2.22
2023-03-15T16:50:40.919Z,1.83
2023-03-15T16:53:12.453Z,2.22
2023-03-15T16:55:39.714Z,2.25
2023-03-15T16:58:18.553Z,2.92
2023-03-15T17:00:47.043Z,3.22
2023-03-15T17:03:14.567Z,2.53
2023-03-15T17:05:42.582Z,2.03
2023-03-15T17:08:13.882Z,2.30
2023-03-15T17:10:42.118Z,3.08
2023-03-15T17:13:18.469Z,2.88
2023-03-15T17:15:45.134Z,2.65
2023-03-15T17:18:19.395Z,3.67
2023-03-15T17:20:48.460Z,4.07
2023-03-15T17:23:23.562Z,3.15
2023-03-15T17:25:50.861Z,3.20
2023-03-15T17:28:17.636Z,2.75
2023-03-15T17:30:44.709Z,3.00
2023-03-15T17:33:11.415Z,3.30
2023-03-15T17:35:41.888Z,4.85
2023-03-15T17:38:17.459Z,5.97
2023-03-15T17:40:44.103Z,6.80
2023-03-15T17:43:12.608Z,6.28
2023-03-15T17:45:39.162Z,7.68
2023-03-15T17:48:05.897Z,6.68
2023-03-15T17:50:34.132Z,8.00
2023-03-15T17:53:03.542Z,9.40
2023-03-15T17:55:34.323Z,7.45
2023-03-15T17:58:09.126Z,3.67
2023-03-15T18:00:35.751Z,3.35
2023-03-15T18:03:02.496Z,2.80
2023-03-15T18:05:29.740Z,3.53
2023-03-15T18:07:59.840Z,13.55
2023-03-15T18:10:34.172Z,5.03
2023-03-15T18:13:01.149Z,8.43
2023-03-15T18:15:27.739Z,11.73
2023-03-15T18:17:54.281Z,21.17
2023-03-15T18:20:24.175Z,15.38
2023-03-15T18:22:50.942Z,5.50
2023-03-15T18:25:24.299Z,12.25
2023-03-15T18:27:51.661Z,6.05
2023-03-15T18:30:20.685Z,6.07
2023-03-15T18:32:47.640Z,5.35
2023-03-15T18:35:18.007Z,4.72
2023-03-15T18:37:45.470Z,5.40
2023-03-15T18:40:15.155Z,4.65
2023-03-15T18:42:42.764Z,4.78
2023-03-15T18:45:32.232Z,4.88
2023-03-15T18:48:01.995Z,6.63
2023-03-15T18:50:29.460Z,6.88
2023-03-15T18:52:56.346Z,5.18
2023-03-15T18:55:23.456Z,7.60
2023-03-15T18:57:52.051Z,7.78
2023-03-15T19:00:26.254Z,7.13
2023-03-15T19:02:55.395Z,7.50
2023-03-15T19:05:22.642Z,6.47
2023-03-15T19:07:49.181Z,5.88
2023-03-15T19:10:19.079Z,5.43
2023-03-15T19:12:46.428Z,5.97
2023-03-15T19:15:17.195Z,6.35
2023-03-15T19:17:45.360Z,6.60
2023-03-15T19:20:14.111Z,6.35
2023-03-15T19:22:41.456Z,7.07
2023-03-15T19:25:11.567Z,7.25
2023-03-15T19:27:38.191Z,7.82
2023-03-15T19:30:07.380Z,8.93
2023-03-15T19:32:35.886Z,8.55
2023-03-15T19:35:02.508Z,7.10
2023-03-15T19:37:29.011Z,6.68
2023-03-15T19:39:55.477Z,7.45
2023-03-15T19:42:21.975Z,7.93
2023-03-15T19:44:48.449Z,7.13
2023-03-15T19:47:14.945Z,7.20
2023-03-15T19:49:41.502Z,7.03
2023-03-15T19:52:08.060Z,6.05
2023-03-15T19:54:34.552Z,6.68
2023-03-15T19:57:01.124Z,6.03
2023-03-15T19:59:27.707Z,6.63
2023-03-15T20:01:54.274Z,7.25
2023-03-15T20:04:20.853Z,7.22
2023-03-15T20:06:47.320Z,7.10
2023-03-15T20:09:13.778Z,7.97
2023-03-15T20:11:40.262Z,7.75
2023-03-15T20:14:06.770Z,7.40
2023-03-15T20:16:33.359Z,9.52
2023-03-15T20:18:59.937Z,9.60
2023-03-15T20:21:26.437Z,9.95
2023-03-15T20:23:52.988Z,9.27
2023-03-15T20:26:20.721Z,8.02
2023-03-15T20:28:47.314Z,8.05
2023-03-15T20:31:16.403Z,8.18
2023-03-15T20:33:43.565Z,7.10
2023-03-15T20:36:11.144Z,5.53
2023-03-15T20:38:38.074Z,5.43
2023-03-15T20:41:06.094Z,5.70
2023-03-15T20:43:33.185Z,4.47
2023-03-15T20:46:01.685Z,4.90
2023-03-15T20:48:29.881Z,5.43
2023-03-15T20:50:58.040Z,4.93
2023-03-15T20:53:25.447Z,5.75
2023-03-15T20:55:51.937Z,4.80
2023-03-15T20:58:18.405Z,5.22
2023-03-15T21:00:45.456Z,5.00
2023-03-15T21:03:13.253Z,4.88
2023-03-15T21:05:45.042Z,5.65
2023-03-15T21:08:13.950Z,5.20
2023-03-15T21:10:40.789Z,4.63
2023-03-15T21:13:10.061Z,4.95
2023-03-15T21:15:46.385Z,5.22
2023-03-15T21:18:17.530Z,4.38
2023-03-15T21:20:44.443Z,4.88
2023-03-15T21:23:11.765Z,4.88
2023-03-15T21:25:38.475Z,4.38
2023-03-15T21:28:05.273Z,5.72
2023-03-15T21:30:32.921Z,4.22
2023-03-15T21:32:59.982Z,4.32
2023-03-15T21:35:26.697Z,3.83
2023-03-15T21:37:53.332Z,4.43
2023-03-15T21:40:19.892Z,4.53
2023-03-15T21:42:47.782Z,2.83
2023-03-15T21:45:14.733Z,4.85
2023-03-15T21:47:41.527Z,4.28
2023-03-15T21:50:11.116Z,4.72
2023-03-15T21:52:37.586Z,4.65
2023-03-15T21:55:04.907Z,4.78
2023-03-15T21:57:33.695Z,5.85
2023-03-15T22:00:01.236Z,4.75
2023-03-15T22:02:27.800Z,4.90
2023-03-15T22:04:54.294Z,4.70
2023-03-15T22:07:20.790Z,4.85
2023-03-15T22:09:47.268Z,4.43
2023-03-15T22:12:15.471Z,5.15
2023-03-15T22:14:42.248Z,5.35
2023-03-15T22:17:08.875Z,4.90
2023-03-15T22:19:37.762Z,4.53
2023-03-15T22:22:04.787Z,4.38
2023-03-15T22:24:33.942Z,5.05
2023-03-15T22:27:00.641Z,5.05
2023-03-15T22:29:27.539Z,4.70
2023-03-15T22:31:54.100Z,4.75
2023-03-15T22:34:20.587Z,4.63
2023-03-15T22:36:47.048Z,5.95
2023-03-15T22:39:14.334Z,5.13
2023-03-15T22:41:40.838Z,5.50
2023-03-15T22:44:07.412Z,5.55
2023-03-15T22:46:35.273Z,2.97
2023-03-15T22:49:02.254Z,4.57
2023-03-15T22:51:28.835Z,5.82
2023-03-15T22:53:55.387Z,3.58
2023-03-15T22:56:21.882Z,4.50
2023-03-15T22:58:48.767Z,4.57
2023-03-15T23:01:15.409Z,5.13
2023-03-15T23:03:42.039Z,5.25
2023-03-15T23:06:08.563Z,4.72
2023-03-15T23:08:35.070Z,3.35
2023-03-15T23:11:01.550Z,3.50
2023-03-15T23:13:28.006Z,2.90
2023-03-15T23:15:54.516Z,5.15
2023-03-15T23:18:22.076Z,4.50
2023-03-15T23:20:48.535Z,5.07
2023-03-15T23:23:15.038Z,5.82
2023-03-15T23:25:41.577Z,4.95
2023-03-15T23:28:08.117Z,4.65
2023-03-15T23:30:36.197Z,6.15
2023-03-15T23:33:03.672Z,4.32
2023-03-15T23:35:31.437Z,5.47
2023-03-15T23:37:58.012Z,4.85
2023-03-15T23:40:25.739Z,4.65
2023-03-15T23:42:58.863Z,4.38
2023-03-15T23:45:27.653Z,4.70
2023-03-15T23:47:54.195Z,4.85
2023-03-15T23:50:21.161Z,4.28
2023-03-15T23:52:47.608Z,5.03
2023-03-15T23:55:14.138Z,4.95
2023-03-15T23:57:41.434Z,5.13
